TimeEDT,TemperatureF,Dew PointF,Humidity,Sea Level PressureIn,VisibilityMPH,Wind Direction,Wind SpeedMPH,Gust SpeedMPH,PrecipitationIn,Events,Conditions,WindDirDegrees,DateUTC
12:51 AM,72.0,71.1,97,30.06,0.5,Calm,Calm,-,N/A,Fog,Fog,0,2013-08-12 04:51:00
1:07 AM,71.6,71.6,100,30.09,0.2,Calm,Calm,-,N/A,Fog,Fog,0,2013-08-12 05:07:00
1:25 AM,71.6,69.8,94,30.09,0.8,Calm,Calm,-,N/A,,Mist,0,2013-08-12 05:25:00
1:33 AM,71.6,71.6,100,30.09,1.2,SSW,3.5,-,N/A,,Overcast,200,2013-08-12 05:33:00
1:51 AM,72.0,70.0,93,30.06,0.5,Calm,Calm,-,N/A,Fog,Fog,0,2013-08-12 05:51:00
2:00 AM,71.6,69.8,94,30.08,0.2,Calm,Calm,-,N/A,Fog,Fog,0,2013-08-12 06:00:00
2:51 AM,71.1,70.0,96,30.06,0.2,Calm,Calm,-,N/A,Fog,Fog,0,2013-08-12 06:51:00
3:51 AM,71.1,70.0,96,30.06,0.2,South,3.5,-,N/A,Fog,Fog,190,2013-08-12 07:51:00
4:51 AM,71.1,70.0,96,30.06,0.2,Calm,Calm,-,N/A,Fog,Fog,0,2013-08-12 08:51:00
5:51 AM,70.0,69.1,97,30.06,0.2,Calm,Calm,-,N/A,Fog,Fog,0,2013-08-12 09:51:00
6:51 AM,70.0,69.1,97,30.06,0.2,Calm,Calm,-,N/A,Fog,Fog,0,2013-08-12 10:51:00
7:51 AM,70.0,69.1,97,30.06,0.2,Calm,Calm,-,N/A,Fog,Fog,0,2013-08-12 11:51:00
8:51 AM,70.0,69.1,97,30.06,0.2,Calm,Calm,-,N/A,Fog,Fog,0,2013-08-12 12:51:00
9:51 AM,72.0,70.0,93,30.06,0.2,Calm,Calm,-,N/A,Fog,Fog,0,2013-08-12 13:51:00
10:17 AM,71.6,69.8,94,30.08,1.0,SSW,3.5,-,N/A,,Overcast,200,2013-08-12 14:17:00
10:23 AM,71.6,71.6,100,30.09,0.8,SSW,4.6,-,N/A,,Overcast,200,2013-08-12 14:23:00
10:51 AM,72.0,71.1,97,30.07,0.8,SSE,3.5,-,N/A,,Overcast,150,2013-08-12 14:51:00
11:17 AM,73.4,71.6,94,30.08,2.0,Calm,Calm,-,N/A,,Overcast,0,2013-08-12 15:17:00
11:47 AM,75.2,71.6,89,30.07,2.5,Calm,Calm,-,N/A,,Haze,0,2013-08-12 15:47:00
11:51 AM,75.9,71.1,85,30.05,2.5,Variable,3.5,-,N/A,,Haze,0,2013-08-12 15:51:00
11:56 AM,77.0,71.6,83,30.07,3.0,South,5.8,-,N/A,,Haze,180,2013-08-12 15:56:00
12:51 PM,79.0,72.0,79,30.05,4.0,South,6.9,-,N/A,,Haze,190,2013-08-12 16:51:00
1:40 PM,82.4,73.4,74,30.05,6.0,South,8.1,-,N/A,,Scattered Clouds,170,2013-08-12 17:40:00
1:51 PM,81.0,72.0,74,30.02,6.0,SSE,5.8,-,N/A,,Haze,160,2013-08-12 17:51:00
2:51 PM,80.1,72.0,76,30.00,6.0,South,4.6,-,N/A,,Haze,180,2013-08-12 18:51:00
3:51 PM,78.1,72.0,81,29.98,5.0,South,4.6,-,0.00,Rain,Light Rain,190,2013-08-12 19:51:00
4:51 PM,77.0,73.9,90,29.96,5.0,South,5.8,-,0.01,Rain,Light Rain,180,2013-08-12 20:51:00
5:51 PM,78.1,73.0,84,29.96,6.0,South,8.1,-,0.00,,Haze,180,2013-08-12 21:51:00
6:51 PM,78.1,73.0,84,29.94,6.0,SSW,5.8,-,N/A,,Haze,200,2013-08-12 22:51:00
7:51 PM,77.0,73.0,88,29.93,5.0,South,3.5,-,N/A,,Scattered Clouds,180,2013-08-12 23:51:00
8:39 PM,75.2,73.4,94,29.94,5.0,SSE,3.5,-,N/A,,Scattered Clouds,150,2013-08-13 00:39:00
8:51 PM,75.0,72.0,90,29.93,6.0,South,5.8,-,N/A,,Scattered Clouds,180,2013-08-13 00:51:00
9:08 PM,75.2,71.6,89,29.95,6.0,SSW,5.8,-,0.00,Rain,Light Rain,200,2013-08-13 01:08:00
9:51 PM,73.9,71.1,91,29.91,7.0,South,5.8,-,0.00,,Scattered Clouds,190,2013-08-13 01:51:00
10:10 PM,73.4,71.6,94,29.93,7.0,South,3.5,-,N/A,,Mostly Cloudy,190,2013-08-13 02:10:00
10:22 PM,73.4,71.6,94,29.93,8.0,South,5.8,-,N/A,,Scattered Clouds,190,2013-08-13 02:22:00
10:51 PM,73.0,70.0,90,29.91,10.0,SSW,4.6,-,N/A,,Clear,200,2013-08-13 02:51:00
11:51 PM,73.0,70.0,90,29.91,9.0,SSW,6.9,-,0.00,Rain,Light Rain,200,2013-08-13 03:51:00